| time (UTC) | temp F | wind direction | speed knots | gust knots | rain 1hr in | rain 24hr in | rain mn in | humidity % | barometer mb |
| 20260510044530 | 67 | 257 | 0.9 | 5.2 | 0.00 | 0.00 | 0.00 | 63 | 1027.2 |
| 20260510043017 | 67 | 27 | 0.9 | 3.5 | 0.00 | 0.00 | 0.00 | 65 | 1027.4 |
| 20260510041514 | 67 | 133 | 0.9 | 3.5 | 0.00 | 0.00 | 0.00 | 64 | 1027.5 |
| 20260510040012 | 67 | 147 | 1.7 | 6.1 | 0.00 | 0.00 | 0.00 | 64 | 1027.5 |
| 20260510034507 | 67 | 219 | 1.7 | 4.3 | 0.00 | 0.00 | 0.00 | 63 | 1027.6 |
| 20260510033133 | 67 | 319 | 0.9 | 3.5 | 0.00 | 0.00 | 0.00 | 66 | 1027.8 |
| 20260510031542 | 66 | 179 | 1.7 | 6.1 | 0.00 | 0.00 | 0.00 | 66 | 1027.8 |
| 20260510030028 | 66 | 56 | 1.7 | 5.2 | 0.00 | 0.00 | 0.00 | 65 | 1027.9 |
| 20260510024527 | 65 | 1 | 0.9 | 7.8 | 0.00 | 0.00 | 0.00 | 65 | 1027.9 |
| 20260510023019 | 65 | 324 | 0.9 | 4.3 | 0.00 | 0.00 | 0.00 | 64 | 1028.0 |
| 20260510021518 | 66 | 41 | 1.7 | 5.2 | 0.00 | 0.00 | 0.00 | 61 | 1028.2 |
| 20260510020012 | 65 | 224 | 0.9 | 7.0 | 0.00 | 0.00 | 0.00 | 67 | 1028.4 |
| 20260510014509 | 64 | 162 | 1.7 | 7.8 | 0.00 | 0.00 | 0.00 | 67 | 1028.3 |
| 20260510013007 | 65 | 136 | 1.7 | 4.3 | 0.00 | 0.00 | 0.00 | 66 | 1028.5 |
| 20260510011555 | 64 | 135 | 0.9 | 3.5 | 0.00 | 0.00 | 0.00 | 68 | 1028.6 |
| 20260510010040 | 63 | 303 | 0.9 | 6.1 | 0.00 | 0.00 | 0.00 | 70 | 1028.9 |
| 20260510004525 | 63 | 11 | 1.7 | 5.2 | 0.00 | 0.00 | 0.00 | 71 | 1028.8 |
| 20260510003011 | 62 | 58 | 0.0 | 2.6 | 0.00 | 0.00 | 0.00 | 73 | 1028.9 |
| 20260510001600 | 61 | 63 | 0.0 | 1.7 | 0.00 | 0.00 | 0.00 | 76 | 1028.8 |
| 20260509234546 | 55 | 316 | 0.0 | 4.3 | 0.00 | 0.00 | 0.00 | 95 | 1028.7 |
| 20260509233016 | 53 | 25 | 0.9 | 3.5 | 0.00 | 0.00 | 0.00 | 97 | 1028.6 |
| 20260509231503 | 51 | 328 | 0.0 | 1.7 | 0.00 | 0.00 | 0.00 | 97 | 1028.5 |
| 20260509230100 | 51 | 335 | 0.0 | 1.7 | 0.00 | 0.00 | 0.00 | 97 | 1028.6 |
| 20260509224544 | 50 | 328 | 0.0 | 1.7 | 0.00 | 0.00 | 0.00 | 97 | 1028.4 |
| 20260509223030 | 49 | 337 | 0.0 | 1.7 | 0.00 | 0.00 | 0.00 | 97 | 1028.3 |
| 20260509221516 | 48 | 329 | 0.0 | 0.9 | 0.00 | 0.00 | 0.00 | 97 | 1028.3 |
| 20260509220002 | 47 | 299 | 0.0 | 0.9 | 0.00 | 0.00 | 0.00 | 97 | 1028.2 |
| 20260509214543 | 47 | 259 | 0.0 | 0.9 | 0.00 | 0.00 | 0.00 | 97 | 1028.2 |
| 20260509213035 | 46 | 259 | 0.0 | 0.0 | 0.00 | 0.00 | 0.00 | 97 | 1028.1 |
| 20260509211519 | 45 | 259 | 0.0 | 0.0 | 0.00 | 0.00 | 0.00 | 97 | 1028.0 |
| 20260509210013 | 43 | 259 | 0.0 | 0.0 | 0.00 | 0.00 | 0.00 | 97 | 1027.9 |
| 20260509204523 | 44 | 259 | 0.0 | 0.0 | 0.00 | 0.00 | 0.00 | 96 | 1027.6 |
| 20260509203014 | 45 | 259 | 0.0 | 0.0 | 0.00 | 0.00 | 0.00 | 97 | 1027.4 |
| 20260509201508 | 45 | 259 | 0.0 | 0.0 | 0.00 | 0.00 | 0.00 | 96 | 1027.2 |
| 20260509200002 | 45 | 259 | 0.0 | 0.0 | 0.00 | 0.00 | 0.00 | 97 | 1026.9 |
| 20260509194600 | 45 | 259 | 0.0 | 0.0 | 0.00 | 0.00 | 0.00 | 97 | 1026.7 |
| 20260509193005 | 46 | 259 | 0.0 | 0.0 | 0.00 | 0.00 | 0.00 | 97 | 1026.5 |
| 20260509191603 | 46 | 259 | 0.0 | 0.0 | 0.00 | 0.00 | 0.00 | 97 | 1026.3 |
| 20260509190057 | 44 | 259 | 0.0 | 0.0 | 0.00 | 0.00 | 0.00 | 97 | 1026.2 |
| 20260509184602 | 45 | 259 | 0.0 | 0.0 | 0.00 | 0.00 | 0.00 | 97 | 1026.0 |
| 20260509183052 | 44 | 259 | 0.0 | 0.0 | 0.00 | 0.00 | 0.00 | 97 | 1026.1 |
| 20260509181612 | 44 | 259 | 0.0 | 0.0 | 0.00 | 0.00 | 0.00 | 97 | 1025.8 |
| 20260509180044 | 44 | 259 | 0.0 | 0.0 | 0.00 | 0.00 | 0.00 | 96 | 1025.7 |
| 20260509174538 | 45 | 259 | 0.0 | 0.0 | 0.00 | 0.00 | 0.00 | 97 | 1025.7 |
| 20260509173028 | 45 | 259 | 0.0 | 0.0 | 0.00 | 0.00 | 0.00 | 96 | 1025.7 |
| 20260509171535 | 45 | 259 | 0.0 | 0.0 | 0.00 | 0.00 | 0.00 | 96 | 1025.8 |
| 20260509170029 | 45 | 259 | 0.0 | 0.0 | 0.00 | 0.00 | 0.00 | 96 | 1025.9 |
| 20260509164516 | 46 | 259 | 0.0 | 0.0 | 0.00 | 0.00 | 0.00 | 97 | 1026.0 |
| 20260509163023 | 45 | 259 | 0.0 | 0.0 | 0.00 | 0.00 | 0.00 | 96 | 1026.0 |
| 20260509161522 | 46 | 259 | 0.0 | 0.0 | 0.00 | 0.00 | 0.00 | 96 | 1025.9 |
| 20260509160014 | 45 | 259 | 0.0 | 0.0 | 0.00 | 0.00 | 0.00 | 96 | 1025.8 |
| 20260509154512 | 45 | 259 | 0.0 | 0.0 | 0.00 | 0.00 | 0.00 | 96 | 1025.8 |
| 20260509153004 | 45 | 259 | 0.0 | 0.0 | 0.00 | 0.00 | 0.00 | 96 | 1026.0 |
| 20260509151501 | 46 | 259 | 0.0 | 0.0 | 0.00 | 0.00 | 0.00 | 96 | 1025.9 |
| 20260509150011 | 45 | 259 | 0.0 | 0.0 | 0.00 | 0.00 | 0.00 | 96 | 1026.0 |
| 20260509144523 | 45 | 259 | 0.0 | 0.0 | 0.00 | 0.00 | 0.00 | 95 | 1025.9 |
| 20260509143020 | 46 | 259 | 0.0 | 0.0 | 0.00 | 0.00 | 0.00 | 96 | 1026.0 |
| 20260509141516 | 46 | 259 | 0.0 | 0.0 | 0.00 | 0.00 | 0.00 | 95 | 1026.0 |
| 20260509140107 | 46 | 259 | 0.0 | 0.0 | 0.00 | 0.00 | 0.00 | 95 | 1026.0 |
| 20260509134503 | 46 | 259 | 0.0 | 0.0 | 0.00 | 0.00 | 0.00 | 96 | 1026.0 |
| 20260509133103 | 45 | 259 | 0.0 | 0.0 | 0.00 | 0.00 | 0.00 | 95 | 1026.1 |
| 20260509131512 | 46 | 259 | 0.0 | 0.0 | 0.00 | 0.00 | 0.00 | 95 | 1026.2 |
| 20260509130003 | 46 | 259 | 0.0 | 0.0 | 0.00 | 0.00 | 0.00 | 93 | 1026.2 |
| 20260509124602 | 46 | 259 | 0.0 | 0.0 | 0.00 | 0.00 | 0.00 | 92 | 1026.1 |
| 20260509123131 | 47 | 259 | 0.0 | 0.0 | 0.00 | 0.00 | 0.00 | 92 | 1026.2 |
| 20260509121612 | 47 | 259 | 0.0 | 0.0 | 0.00 | 0.00 | 0.00 | 92 | 1026.4 |
| 20260509120112 | 46 | 259 | 0.0 | 0.0 | 0.00 | 0.00 | 0.00 | 89 | 1026.5 |
| 20260509114552 | 47 | 259 | 0.0 | 0.0 | 0.00 | 0.00 | 0.00 | 89 | 1026.2 |
| 20260509113048 | 48 | 259 | 0.0 | 0.0 | 0.00 | 0.00 | 0.00 | 87 | 1026.2 |
| 20260509111557 | 49 | 259 | 0.0 | 0.0 | 0.00 | 0.00 | 0.00 | 88 | 1026.3 |
| 20260509110035 | 49 | 259 | 0.0 | 0.0 | 0.00 | 0.00 | 0.00 | 85 | 1026.2 |
| 20260509104543 | 50 | 259 | 0.0 | 0.9 | 0.00 | 0.00 | 0.00 | 84 | 1026.1 |
| 20260509103045 | 52 | 259 | 0.0 | 0.9 | 0.00 | 0.00 | 0.00 | 85 | 1026.0 |
| 20260509101533 | 52 | 259 | 0.0 | 0.9 | 0.00 | 0.00 | 0.00 | 84 | 1025.9 |
| 20260509100015 | 52 | 235 | 0.0 | 2.6 | 0.00 | 0.00 | 0.00 | 83 | 1025.9 |
| 20260509094508 | 52 | 262 | 0.0 | 1.7 | 0.00 | 0.00 | 0.00 | 82 | 1025.8 |
| 20260509093054 | 52 | 283 | 0.0 | 1.7 | 0.00 | 0.00 | 0.00 | 81 | 1025.7 |
| 20260509091541 | 52 | 232 | 0.0 | 0.9 | 0.00 | 0.00 | 0.00 | 80 | 1025.4 |
| 20260509090024 | 52 | 228 | 0.0 | 1.7 | 0.00 | 0.00 | 0.00 | 80 | 1025.3 |
| 20260509084507 | 50 | 209 | 0.0 | 2.6 | 0.00 | 0.00 | 0.00 | 83 | 1024.9 |
| 20260509083013 | 49 | 338 | 0.0 | 0.0 | 0.00 | 0.00 | 0.00 | 80 | 1024.7 |
| 20260509081515 | 50 | 338 | 0.0 | 0.0 | 0.00 | 0.00 | 0.00 | 79 | 1024.5 |
| 20260509080016 | 51 | 338 | 0.0 | 0.0 | 0.00 | 0.00 | 0.00 | 74 | 1024.2 |
| 20260509074508 | 54 | 338 | 0.0 | 0.9 | 0.00 | 0.00 | 0.00 | 72 | 1024.2 |
| 20260509073004 | 55 | 338 | 0.0 | 0.0 | 0.00 | 0.00 | 0.00 | 72 | 1023.9 |
| 20260509071603 | 56 | 360 | 0.0 | 0.0 | 0.00 | 0.00 | 0.00 | 71 | 1023.8 |
| 20260509070101 | 57 | 359 | 0.0 | 0.0 | 0.00 | 0.00 | 0.00 | 71 | 1023.6 |
| 20260509064611 | 59 | 195 | 0.0 | 0.0 | 0.00 | 0.00 | 0.00 | 66 | 1023.5 |
| 20260509063047 | 63 | 193 | 0.0 | 0.0 | 0.00 | 0.00 | 0.00 | 59 | 1023.3 |
| 20260509061531 | 65 | 144 | 0.0 | 3.5 | 0.00 | 0.00 | 0.00 | 57 | 1023.4 |
| 20260509060018 | 64 | 143 | 0.0 | 4.3 | 0.00 | 0.00 | 0.00 | 58 | 1023.1 |
| 20260509054604 | 66 | 248 | 0.9 | 4.3 | 0.00 | 0.00 | 0.00 | 54 | 1023.0 |
| 20260509053049 | 66 | 207 | 0.0 | 3.5 | 0.00 | 0.00 | 0.00 | 55 | 1023.0 |
| 20260509051533 | 65 | 11 | 0.0 | 4.3 | 0.00 | 0.00 | 0.00 | 56 | 1023.0 |
| 20260509050020 | 64 | 224 | 1.7 | 4.3 | 0.00 | 0.00 | 0.00 | 57 | 1023.0 |